James Davison — WDF9427 — position and weather

sailwx.info

Track history (hours):
 
Tides and Currents Weather Stations Pressure Air Temp Water Temp Dewpoint Dewpoint Depression Visibility Wind Speed Wind Dir Waves Ship Positions

James Davison

Owner: Genesis Marine, LLC, Houston, TX. More information available from US FCC via Universal Licensing System and Coast Guard Vessel Documentation Center.

Last reported at 2017-Oct-13 17:02 UTC. Time now 2017-Oct-22 06:26 UTC.
Position N 31°59' W 091°07'.
Warning: this ship's position is 8 days out of date.

Length 26 m; draft 3 m.

Type: Other ship. MMSI: 367505050.

Date/timePositionNaut miles runAvg speedWind from/ knotsBaromVisibWave heightAir tempDewpointWater temp
2017-Oct-13 17:02N 31°59' W 091°07'1 8.6
2017-Oct-13 16:58N 31°59' W 091°06'4 8.9
2017-Oct-13 16:29N 32°03' W 091°03'4 8.7
2017-Oct-13 16:01N 32°06' W 091°06'2 4.8
2017-Oct-13 15:30N 32°08' W 091°04'3 6.2
2017-Oct-13 15:00N 32°09' W 091°00'4 7.8
2017-Oct-13 14:31N 32°13' W 090°59'4 7.7
2017-Oct-13 14:01N 32°16' W 090°58'4 7.6
2017-Oct-13 13:31N 32°19' W 090°54'3 5.5
2017-Oct-13 13:01N 32°21' W 090°57'3 6.5
2017-Oct-13 12:31N 32°22' W 091°00'4 7.3
2017-Oct-13 12:01N 32°25' W 091°01'4 8.2
2017-Oct-13 11:31N 32°27' W 091°05'4 7.2
2017-Oct-13 11:00N 32°30' W 091°07'4 7.9
2017-Oct-13 10:31N 32°34' W 091°06'4 8.0
2017-Oct-13 10:01N 32°37' W 091°09'8 7.0
2017-Oct-13 08:53N 32°44' W 091°03'5 7.5
2017-Oct-13 08:14N 32°45' W 091°09'3 7.9
2017-Oct-13 07:55N 32°47' W 091°09'5 8.7
2017-Oct-13 07:23N 32°52' W 091°07'5 6.6
2017-Oct-13 06:34N 32°57' W 091°05'5 6.3
2017-Oct-13 05:46N 32°60' W 091°10'  
2017-Oct-06 10:29N 32°49' W 091°09'1 1.8
2017-Oct-06 09:56N 32°48' W 091°10'0 0.0
2017-Oct-06 09:30N 32°48' W 091°10'1 1.0
2017-Oct-06 08:36N 32°47' W 091°09'0 3.9
2017-Oct-06 08:30N 32°46' W 091°09'1 2.6
2017-Oct-06 07:56N 32°45' W 091°09'5 1.1
2017-Oct-06 03:14N 32°40' W 091°06'0 0.9
2017-Oct-06 02:51N 32°40' W 091°07'0 0.0
2017-Oct-06 02:30N 32°40' W 091°07'0 0.1
2017-Oct-06 02:00N 32°40' W 091°07'2 3.0
2017-Oct-06 01:30N 32°40' W 091°08'2 3.7
2017-Oct-06 01:00N 32°38' W 091°09'2 4.3
2017-Oct-06 00:30N 32°36' W 091°08'2 4.1
2017-Oct-06 00:00N 32°34' W 091°07'2 3.3
2017-Oct-05 23:30N 32°33' W 091°06'2 4.1
2017-Oct-05 23:00N 32°31' W 091°06'2 5.0
2017-Oct-05 22:30N 32°28' W 091°07'3 5.2
2017-Oct-05 22:00N 32°27' W 091°04'2 4.5
2017-Oct-05 21:30N 32°26' W 091°02'2 4.5
2017-Oct-05 21:00N 32°25' W 090°60'2 4.3
2017-Oct-05 20:30N 32°23' W 091°00'2 4.2
2017-Oct-05 20:00N 32°21' W 090°58'2 5.0
2017-Oct-05 19:30N 32°21' W 090°55'2 3.7
2017-Oct-05 19:00N 32°19' W 090°54'2 3.6
2017-Oct-05 18:30N 32°18' W 090°55'0 0.0
2017-Oct-05 18:00N 32°18' W 090°55'0 0.0
2017-Oct-05 17:30N 32°18' W 090°55'0 0.0
2017-Oct-05 17:00N 32°18' W 090°55'2 1.5
2017-Oct-05 15:30N 32°16' W 090°57'3 5.2
2017-Oct-05 15:00N 32°14' W 090°59'3 5.6
2017-Oct-05 14:30N 32°11' W 090°60'3 5.4
2017-Oct-05 14:00N 32°09' W 091°00'2 4.9
2017-Oct-05 13:30N 32°07' W 091°02'3 5.4
2017-Oct-05 13:00N 32°08' W 091°06'5 4.3
2017-Oct-05 11:54N 32°04' W 091°03'2 5.1
2017-Oct-05 11:30N 32°02' W 091°04'3 5.4
2017-Oct-05 11:00N 31°59' W 091°06'11 3.4
2017-Oct-05 07:50N 31°52' W 091°15'2 4.8
2017-Oct-05 07:29N 31°51' W 091°17'  
Track history (hours):
 
Tides and Currents Weather Stations Pressure Air Temp Water Temp Dewpoint Dewpoint Depression Visibility Wind Speed Wind Dir Waves Ship Positions

James Davison

Owner: Genesis Marine, LLC, Houston, TX. More information available from US FCC via Universal Licensing System and Coast Guard Vessel Documentation Center.

Last reported at 2017-Oct-13 17:02 UTC. Time now 2017-Oct-22 06:26 UTC.
Position N 31°59' W 091°07'.
Warning: this ship's position is 8 days out of date.

Length 26 m; draft 3 m.

Type: Other ship. MMSI: 367505050.

Date/timePositionNaut miles runAvg speedWind from/ knotsBaromVisibWave heightAir tempDewpointWater temp
2017-Oct-13 17:02N 31°59' W 091°07'1 8.6
2017-Oct-13 16:58N 31°59' W 091°06'4 8.9
2017-Oct-13 16:29N 32°03' W 091°03'4 8.7
2017-Oct-13 16:01N 32°06' W 091°06'2 4.8
2017-Oct-13 15:30N 32°08' W 091°04'3 6.2
2017-Oct-13 15:00N 32°09' W 091°00'4 7.8
2017-Oct-13 14:31N 32°13' W 090°59'4 7.7
2017-Oct-13 14:01N 32°16' W 090°58'4 7.6
2017-Oct-13 13:31N 32°19' W 090°54'3 5.5
2017-Oct-13 13:01N 32°21' W 090°57'3 6.5
2017-Oct-13 12:31N 32°22' W 091°00'4 7.3
2017-Oct-13 12:01N 32°25' W 091°01'4 8.2
2017-Oct-13 11:31N 32°27' W 091°05'4 7.2
2017-Oct-13 11:00N 32°30' W 091°07'4 7.9
2017-Oct-13 10:31N 32°34' W 091°06'4 8.0
2017-Oct-13 10:01N 32°37' W 091°09'8 7.0
2017-Oct-13 08:53N 32°44' W 091°03'5 7.5
2017-Oct-13 08:14N 32°45' W 091°09'3 7.9
2017-Oct-13 07:55N 32°47' W 091°09'5 8.7
2017-Oct-13 07:23N 32°52' W 091°07'5 6.6
2017-Oct-13 06:34N 32°57' W 091°05'5 6.3
2017-Oct-13 05:46N 32°60' W 091°10'  
2017-Oct-06 10:29N 32°49' W 091°09'1 1.8
2017-Oct-06 09:56N 32°48' W 091°10'0 0.0
2017-Oct-06 09:30N 32°48' W 091°10'1 1.0
2017-Oct-06 08:36N 32°47' W 091°09'0 3.9
2017-Oct-06 08:30N 32°46' W 091°09'1 2.6
2017-Oct-06 07:56N 32°45' W 091°09'5 1.1
2017-Oct-06 03:14N 32°40' W 091°06'0 0.9
2017-Oct-06 02:51N 32°40' W 091°07'0 0.0
2017-Oct-06 02:30N 32°40' W 091°07'0 0.1
2017-Oct-06 02:00N 32°40' W 091°07'2 3.0
2017-Oct-06 01:30N 32°40' W 091°08'2 3.7
2017-Oct-06 01:00N 32°38' W 091°09'2 4.3
2017-Oct-06 00:30N 32°36' W 091°08'2 4.1
2017-Oct-06 00:00N 32°34' W 091°07'2 3.3
2017-Oct-05 23:30N 32°33' W 091°06'2 4.1
2017-Oct-05 23:00N 32°31' W 091°06'2 5.0
2017-Oct-05 22:30N 32°28' W 091°07'3 5.2
2017-Oct-05 22:00N 32°27' W 091°04'2 4.5
2017-Oct-05 21:30N 32°26' W 091°02'2 4.5
2017-Oct-05 21:00N 32°25' W 090°60'2 4.3
2017-Oct-05 20:30N 32°23' W 091°00'2 4.2
2017-Oct-05 20:00N 32°21' W 090°58'2 5.0
2017-Oct-05 19:30N 32°21' W 090°55'2 3.7
2017-Oct-05 19:00N 32°19' W 090°54'2 3.6
2017-Oct-05 18:30N 32°18' W 090°55'0 0.0
2017-Oct-05 18:00N 32°18' W 090°55'0 0.0
2017-Oct-05 17:30N 32°18' W 090°55'0 0.0
2017-Oct-05 17:00N 32°18' W 090°55'2 1.5
2017-Oct-05 15:30N 32°16' W 090°57'3 5.2
2017-Oct-05 15:00N 32°14' W 090°59'3 5.6
2017-Oct-05 14:30N 32°11' W 090°60'3 5.4
2017-Oct-05 14:00N 32°09' W 091°00'2 4.9
2017-Oct-05 13:30N 32°07' W 091°02'3 5.4
2017-Oct-05 13:00N 32°08' W 091°06'5 4.3
2017-Oct-05 11:54N 32°04' W 091°03'2 5.1
2017-Oct-05 11:30N 32°02' W 091°04'3 5.4
2017-Oct-05 11:00N 31°59' W 091°06'11 3.4
2017-Oct-05 07:50N 31°52' W 091°15'2 4.8
2017-Oct-05 07:29N 31°51' W 091°17'  

Dump ship's entire track history